V/Λ SELECT: Month and Year
OR > Month
Monthly Climatological Summary for Dec 2010
Name: www.delerius-weather.com City: Winterton State: North Lincolnshire
Elevation: 42 m Lat: N 53° 39' 10" Lon: W 000° 36' 49"
Temperature (°C), Rain (mm), Wind Speed (mph)
Heat Cool Avg
Mean Deg Deg Wind Dom
Day Temp High Time Low Time Days Days Rain Speed High Time Dir
----------------------------------------------------------------------------------
1 1.0 2.1 21:00 -0.2 02:15 14.4 0.0 10.6 11.9 37.0 18:00 ENE
2 0.8 2.3 21:00 -2.1 02:15 14.4 0.0 4.0 7.9 28.0 03:15 NE
3 -3.4 -1.5 21:00 -8.3 02:15 14.4 0.0 0.2 3.3 21.0 19:30 SSE
4 -2.1 1.6 21:00 -4.5 02:15 14.4 0.0 2.8 5.7 24.0 01:00 SW
5 -2.4 0.9 21:00 -4.2 02:15 14.4 0.0 0.6 5.8 18.0 10:00 WNW
6 -4.7 -2.3 21:00 -7.5 02:15 14.4 0.0 0.0 3.1 10.0 06:15 WNW
7 -5.1 -1.9 21:00 -8.7 02:15 14.4 0.0 0.0 3.3 10.0 07:30 WNW
8 -2.1 1.7 21:00 -5.6 02:15 14.4 0.0 1.0 9.6 24.0 16:30 WSW
9 -0.4 2.2 21:00 -3.2 02:15 14.4 0.0 0.2 10.3 21.0 01:45 WSW
10 3.1 4.3 21:00 2.1 02:15 14.4 0.0 0.0 7.8 20.0 22:30 SW
11 2.7 4.4 21:00 1.7 02:15 14.4 0.0 0.0 5.5 27.0 01:00 W
12 1.9 3.2 21:00 0.9 02:15 14.4 0.0 1.0 4.3 15.0 01:00 W
13 2.3 3.4 21:00 1.3 02:15 14.4 0.0 6.0 4.8 18.0 16:45 W
14 2.4 4.1 21:00 0.6 02:15 14.4 0.0 1.6 0.8 9.0 00:15 WSW
15 2.2 3.9 21:00 -0.6 02:15 14.4 0.0 3.0 6.9 22.0 21:45 SW
16 2.5 4.7 21:00 -2.3 02:15 14.4 0.0 2.8 10.6 33.0 15:15 WSW
17 -4.9 -2.3 21:00 -7.8 02:15 14.4 0.0 0.0 7.0 23.0 00:15 SW
18 -3.8 1.1 21:00 -8.5 02:15 14.4 0.0 0.0 2.0 13.0 13:45 ENE
19 -2.9 0.7 21:00 -5.6 02:15 14.4 0.0 0.8 1.6 9.0 02:15 W
20 -4.1 2.4 21:00 -9.5 02:15 14.4 0.0 0.6 0.8 6.0 01:45 WSW
21 -5.7 1.2 21:00 -11.3 02:15 14.4 0.0 0.0 3.0 10.0 21:30 WNW
22 -1.4 2.8 21:00 -4.3 02:15 14.4 0.0 0.4 4.4 20.0 09:15 NE
23 1.2 2.6 21:00 -0.3 02:15 14.4 0.0 0.0 9.9 28.0 06:45 NNE
24 1.3 2.7 21:00 -1.3 02:15 14.4 0.0 1.8 5.2 18.0 11:15 W
25 -1.5 0.8 21:00 -4.5 02:15 14.4 0.0 0.0 5.0 16.0 16:15 SW
26 -1.6 0.4 21:00 -4.6 02:15 14.4 0.0 0.0 3.3 18.0 23:45 SSW
27 -0.9 1.1 21:00 -3.4 02:15 14.4 0.0 0.4 3.6 14.0 07:45 SE
28 1.6 2.3 21:00 0.8 02:15 14.4 0.0 5.2 3.6 18.0 11:15 SE
29 2.4 3.9 21:00 1.7 02:15 14.4 0.0 0.8 0.4 7.0 14:30 ESE
30 2.8 3.7 21:00 1.2 02:15 14.4 0.0 0.2 0.9 7.0 19:45 WSW
31 2.6 3.4 21:00 1.9 02:15 14.4 0.0 0.2 1.5 12.0 23:59 SSW
----------------------------------------------------------------------------------
-0.4 4.7 1 -11.3 1 446.4 0.0 44.2 4.9 37.0 1 WSW
Max >= 27.0: 0
Max <= 0.0: 0
Min <= 0.0: 0
Min <= -18.0: 0
Max Rain: 10.6 on day 1
Days of Rain: 21 (>= 0.2 mm) 7 (>= 2.0 mm) 0 (>= 20.0 mm)
Heat Base: 18.3 Cool Base: 18.3 Method: Integration